sensor_id;sensor_type;location;lat;lon;timestamp;pressure;altitude;pressure_sealevel;temperature;humidity
76990;BME280;65924;47.250;11.332;2023-05-15T00:00:07;94332.52;;;12.85;76.12
76990;BME280;65924;47.250;11.332;2023-05-15T00:00:55;94328.98;;;12.82;77.11
76990;BME280;65924;47.250;11.332;2023-05-15T00:01:34;94332.27;;;12.84;76.84
76990;BME280;65924;47.250;11.332;2023-05-15T00:02:13;94328.06;;;12.85;76.91
76990;BME280;65924;47.250;11.332;2023-05-15T00:02:51;94325.83;;;12.85;76.73
76990;BME280;65924;47.250;11.332;2023-05-15T00:03:30;94329.88;;;12.86;75.93
76990;BME280;65924;47.250;11.332;2023-05-15T00:04:11;94329.39;;;12.86;76.68
76990;BME280;65924;47.250;11.332;2023-05-15T00:04:50;94330.02;;;12.87;76.75
76990;BME280;65924;47.250;11.332;2023-05-15T00:05:28;94333.09;;;12.86;76.82
76990;BME280;65924;47.250;11.332;2023-05-15T00:06:08;94334.23;;;12.87;77.06
76990;BME280;65924;47.250;11.332;2023-05-15T00:06:46;94332.25;;;12.88;77.47
76990;BME280;65924;47.250;11.332;2023-05-15T00:07:25;94329.30;;;12.89;77.48
76990;BME280;65924;47.250;11.332;2023-05-15T00:08:03;94323.75;;;12.90;77.11
76990;BME280;65924;47.250;11.332;2023-05-15T00:08:43;94323.17;;;12.91;76.70
76990;BME280;65924;47.250;11.332;2023-05-15T00:09:22;94319.70;;;12.91;76.79
76990;BME280;65924;47.250;11.332;2023-05-15T00:10:01;94318.67;;;12.91;76.77
76990;BME280;65924;47.250;11.332;2023-05-15T00:10:39;94318.49;;;12.92;76.88
76990;BME280;65924;47.250;11.332;2023-05-15T00:11:18;94320.22;;;12.92;76.42
76990;BME280;65924;47.250;11.332;2023-05-15T00:11:58;94314.23;;;12.90;76.53
76990;BME280;65924;47.250;11.332;2023-05-15T00:12:37;94312.30;;;12.90;75.40
76990;BME280;65924;47.250;11.332;2023-05-15T00:13:17;94315.42;;;12.90;76.38
76990;BME280;65924;47.250;11.332;2023-05-15T00:13:56;94316.08;;;12.90;76.57
76990;BME280;65924;47.250;11.332;2023-05-15T00:14:34;94317.77;;;12.90;76.51
76990;BME280;65924;47.250;11.332;2023-05-15T00:15:13;94314.16;;;12.91;76.43
76990;BME280;65924;47.250;11.332;2023-05-15T00:15:52;94312.09;;;12.91;76.16
76990;BME280;65924;47.250;11.332;2023-05-15T00:16:30;94307.09;;;12.89;76.83
76990;BME280;65924;47.250;11.332;2023-05-15T00:17:09;94310.83;;;12.92;76.78
76990;BME280;65924;47.250;11.332;2023-05-15T00:17:48;94311.31;;;12.92;76.89
76990;BME280;65924;47.250;11.332;2023-05-15T00:18:26;94308.89;;;12.92;76.08
76990;BME280;65924;47.250;11.332;2023-05-15T00:19:05;94309.21;;;12.93;76.69
76990;BME280;65924;47.250;11.332;2023-05-15T00:19:44;94310.39;;;12.93;76.80
76990;BME280;65924;47.250;11.332;2023-05-15T00:20:23;94310.23;;;12.93;77.12
76990;BME280;65924;47.250;11.332;2023-05-15T00:21:02;94309.27;;;12.94;77.25
76990;BME280;65924;47.250;11.332;2023-05-15T00:21:41;94309.90;;;12.94;77.44
76990;BME280;65924;47.250;11.332;2023-05-15T00:22:20;94309.86;;;12.95;77.22
76990;BME280;65924;47.250;11.332;2023-05-15T00:22:58;94311.84;;;12.96;76.90
76990;BME280;65924;47.250;11.332;2023-05-15T00:23:37;94312.52;;;12.96;76.54
76990;BME280;65924;47.250;11.332;2023-05-15T00:24:16;94311.52;;;12.95;77.00
76990;BME280;65924;47.250;11.332;2023-05-15T00:24:54;94310.59;;;12.97;77.18
76990;BME280;65924;47.250;11.332;2023-05-15T00:25:33;94314.66;;;12.97;76.58
76990;BME280;65924;47.250;11.332;2023-05-15T00:26:11;94312.27;;;12.97;76.19
76990;BME280;65924;47.250;11.332;2023-05-15T00:26:53;94314.79;;;12.97;76.70
76990;BME280;65924;47.250;11.332;2023-05-15T00:27:31;94314.79;;;12.97;76.19
76990;BME280;65924;47.250;11.332;2023-05-15T00:28:10;94314.63;;;12.97;76.93
76990;BME280;65924;47.250;11.332;2023-05-15T00:28:50;94315.33;;;12.97;76.83
76990;BME280;65924;47.250;11.332;2023-05-15T00:29:28;94311.55;;;12.97;77.15
76990;BME280;65924;47.250;11.332;2023-05-15T00:30:16;94315.09;;;12.98;76.49
76990;BME280;65924;47.250;11.332;2023-05-15T00:30:55;94310.05;;;12.97;75.94
76990;BME280;65924;47.250;11.332;2023-05-15T00:31:33;94313.75;;;12.95;76.31
76990;BME280;65924;47.250;11.332;2023-05-15T00:32:12;94311.24;;;12.95;76.53
76990;BME280;65924;47.250;11.332;2023-05-15T00:32:51;94311.95;;;12.95;76.25
76990;BME280;65924;47.250;11.332;2023-05-15T00:33:30;94311.58;;;12.95;76.33
76990;BME280;65924;47.250;11.332;2023-05-15T00:34:08;94309.89;;;12.95;76.39
76990;BME280;65924;47.250;11.332;2023-05-15T00:34:49;94308.55;;;12.94;76.06
76990;BME280;65924;47.250;11.332;2023-05-15T00:35:27;94310.88;;;12.95;76.73
76990;BME280;65924;47.250;11.332;2023-05-15T00:36:06;94312.41;;;12.95;77.17
76990;BME280;65924;47.250;11.332;2023-05-15T00:36:45;94309.02;;;12.95;76.65
76990;BME280;65924;47.250;11.332;2023-05-15T00:37:24;94309.38;;;12.94;76.62
76990;BME280;65924;47.250;11.332;2023-05-15T00:38:02;94308.48;;;12.95;76.69
76990;BME280;65924;47.250;11.332;2023-05-15T00:38:41;94310.09;;;12.94;76.15
76990;BME280;65924;47.250;11.332;2023-05-15T00:39:20;94308.27;;;12.94;76.63
76990;BME280;65924;47.250;11.332;2023-05-15T00:39:59;94308.12;;;12.93;76.94
76990;BME280;65924;47.250;11.332;2023-05-15T00:40:38;94307.96;;;12.93;76.86
76990;BME280;65924;47.250;11.332;2023-05-15T00:41:19;94310.40;;;12.93;76.27
76990;BME280;65924;47.250;11.332;2023-05-15T00:41:59;94306.68;;;12.92;76.70
76990;BME280;65924;47.250;11.332;2023-05-15T00:42:39;94310.77;;;12.90;76.45
76990;BME280;65924;47.250;11.332;2023-05-15T00:43:19;94311.58;;;12.91;76.34
76990;BME280;65924;47.250;11.332;2023-05-15T00:43:59;94310.24;;;12.91;76.64
76990;BME280;65924;47.250;11.332;2023-05-15T00:44:42;94308.89;;;12.90;76.84
76990;BME280;65924;47.250;11.332;2023-05-15T00:45:25;94309.39;;;12.90;76.98
76990;BME280;65924;47.250;11.332;2023-05-15T00:46:06;94309.15;;;12.91;77.04
76990;BME280;65924;47.250;11.332;2023-05-15T00:46:45;94306.20;;;12.90;76.26
76990;BME280;65924;47.250;11.332;2023-05-15T00:47:24;94308.69;;;12.91;76.06
76990;BME280;65924;47.250;11.332;2023-05-15T00:48:05;94306.71;;;12.90;76.55
76990;BME280;65924;47.250;11.332;2023-05-15T00:48:45;94306.99;;;12.91;76.84
76990;BME280;65924;47.250;11.332;2023-05-15T00:49:24;94307.52;;;12.90;76.61
76990;BME280;65924;47.250;11.332;2023-05-15T00:50:07;94306.51;;;12.90;76.20
76990;BME280;65924;47.250;11.332;2023-05-15T00:50:46;94306.45;;;12.89;76.58
76990;BME280;65924;47.250;11.332;2023-05-15T00:51:25;94306.08;;;12.89;76.61
76990;BME280;65924;47.250;11.332;2023-05-15T00:52:05;94304.71;;;12.89;76.58
76990;BME280;65924;47.250;11.332;2023-05-15T00:52:46;94307.28;;;12.89;76.76
76990;BME280;65924;47.250;11.332;2023-05-15T00:53:28;94308.27;;;12.89;76.52
76990;BME280;65924;47.250;11.332;2023-05-15T00:54:07;94308.77;;;12.90;76.42
76990;BME280;65924;47.250;11.332;2023-05-15T00:54:46;94307.94;;;12.90;76.44
76990;BME280;65924;47.250;11.332;2023-05-15T00:55:25;94309.25;;;12.90;76.82
76990;BME280;65924;47.250;11.332;2023-05-15T00:56:04;94309.43;;;12.90;75.68
76990;BME280;65924;47.250;11.332;2023-05-15T00:56:46;94307.41;;;12.88;75.61
76990;BME280;65924;47.250;11.332;2023-05-15T00:57:30;94311.52;;;12.85;75.27
76990;BME280;65924;47.250;11.332;2023-05-15T00:58:09;94312.53;;;12.83;76.12
76990;BME280;65924;47.250;11.332;2023-05-15T00:58:49;94310.07;;;12.82;75.55
76990;BME280;65924;47.250;11.332;2023-05-15T00:59:30;94312.02;;;12.81;76.42
76990;BME280;65924;47.250;11.332;2023-05-15T01:00:10;94310.60;;;12.82;76.53
76990;BME280;65924;47.250;11.332;2023-05-15T01:00:49;94312.48;;;12.82;76.66
76990;BME280;65924;47.250;11.332;2023-05-15T01:01:28;94313.46;;;12.82;76.70
76990;BME280;65924;47.250;11.332;2023-05-15T01:02:13;94305.04;;;12.83;76.72
76990;BME280;65924;47.250;11.332;2023-05-15T01:02:53;94306.05;;;12.83;76.77
76990;BME280;65924;47.250;11.332;2023-05-15T01:03:32;94305.19;;;12.83;76.27
76990;BME280;65924;47.250;11.332;2023-05-15T01:04:12;94306.08;;;12.83;76.58
76990;BME280;65924;47.250;11.332;2023-05-15T01:04:50;94305.27;;;12.82;76.41
76990;BME280;65924;47.250;11.332;2023-05-15T01:05:29;94302.52;;;12.80;76.17
76990;BME280;65924;47.250;11.332;2023-05-15T01:06:08;94303.43;;;12.80;75.68
76990;BME280;65924;47.250;11.332;2023-05-15T01:06:47;94307.80;;;12.81;76.11
76990;BME280;65924;47.250;11.332;2023-05-15T01:07:28;94308.38;;;12.80;75.99
76990;BME280;65924;47.250;11.332;2023-05-15T01:08:26;94304.01;;;12.77;75.65
76990;BME280;65924;47.250;11.332;2023-05-15T01:09:11;94306.61;;;12.72;75.43
76990;BME280;65924;47.250;11.332;2023-05-15T01:09:51;94307.48;;;12.72;75.68
76990;BME280;65924;47.250;11.332;2023-05-15T01:10:33;94307.60;;;12.70;75.70
76990;BME280;65924;47.250;11.332;2023-05-15T01:11:14;94306.64;;;12.70;75.55
76990;BME280;65924;47.250;11.332;2023-05-15T01:11:54;94310.64;;;12.67;75.19
76990;BME280;65924;47.250;11.332;2023-05-15T01:12:34;94312.54;;;12.64;75.89
76990;BME280;65924;47.250;11.332;2023-05-15T01:13:18;94314.86;;;12.65;76.72
76990;BME280;65924;47.250;11.332;2023-05-15T01:13:57;94317.52;;;12.66;76.65
76990;BME280;65924;47.250;11.332;2023-05-15T01:14:36;94313.06;;;12.66;76.69
76990;BME280;65924;47.250;11.332;2023-05-15T01:15:15;94313.11;;;12.68;76.58
76990;BME280;65924;47.250;11.332;2023-05-15T01:15:53;94311.98;;;12.69;76.86
76990;BME280;65924;47.250;11.332;2023-05-15T01:16:33;94313.21;;;12.71;76.97
76990;BME280;65924;47.250;11.332;2023-05-15T01:17:13;94308.33;;;12.72;76.83
76990;BME280;65924;47.250;11.332;2023-05-15T01:17:52;94308.75;;;12.73;76.48
76990;BME280;65924;47.250;11.332;2023-05-15T01:18:31;94311.37;;;12.74;76.67
76990;BME280;65924;47.250;11.332;2023-05-15T01:19:10;94308.84;;;12.74;76.31
76990;BME280;65924;47.250;11.332;2023-05-15T01:19:50;94307.75;;;12.73;76.67
76990;BME280;65924;47.250;11.332;2023-05-15T01:20:33;94309.73;;;12.75;76.76
76990;BME280;65924;47.250;11.332;2023-05-15T01:22:43;94310.98;;;12.77;76.53
76990;BME280;65924;47.250;11.332;2023-05-15T01:26:46;94311.89;;;12.74;77.21
76990;BME280;65924;47.250;11.332;2023-05-15T01:27:46;94310.25;;;12.73;77.64
76990;BME280;65924;47.250;11.332;2023-05-15T01:28:32;94309.84;;;12.72;76.89
76990;BME280;65924;47.250;11.332;2023-05-15T01:29:29;94311.65;;;12.71;77.42
76990;BME280;65924;47.250;11.332;2023-05-15T01:30:49;94313.52;;;12.71;77.25
76990;BME280;65924;47.250;11.332;2023-05-15T01:31:30;94314.84;;;12.71;77.11
76990;BME280;65924;47.250;11.332;2023-05-15T01:32:42;94316.02;;;12.72;77.05
76990;BME280;65924;47.250;11.332;2023-05-15T01:33:30;94316.00;;;12.72;76.86
76990;BME280;65924;47.250;11.332;2023-05-15T01:34:12;94315.52;;;12.72;76.71
76990;BME280;65924;47.250;11.332;2023-05-15T01:35:04;94315.75;;;12.71;76.48
76990;BME280;65924;47.250;11.332;2023-05-15T01:36:47;94319.40;;;12.66;77.13
76990;BME280;65924;47.250;11.332;2023-05-15T01:37:31;94320.67;;;12.65;77.54
76990;BME280;65924;47.250;11.332;2023-05-15T01:39:00;94318.95;;;12.65;76.99
76990;BME280;65924;47.250;11.332;2023-05-15T01:39:41;94321.29;;;12.66;77.13
76990;BME280;65924;47.250;11.332;2023-05-15T01:40:24;94322.94;;;12.66;76.97
76990;BME280;65924;47.250;11.332;2023-05-15T01:42:09;94323.17;;;12.68;77.31
76990;BME280;65924;47.250;11.332;2023-05-15T01:42:53;94321.45;;;12.68;77.63
76990;BME280;65924;47.250;11.332;2023-05-15T01:43:34;94319.25;;;12.68;77.29
76990;BME280;65924;47.250;11.332;2023-05-15T01:44:29;94325.00;;;12.68;76.86
76990;BME280;65924;47.250;11.332;2023-05-15T01:45:10;94319.45;;;12.67;77.20
76990;BME280;65924;47.250;11.332;2023-05-15T01:45:49;94315.66;;;12.66;77.06
76990;BME280;65924;47.250;11.332;2023-05-15T01:46:34;94316.21;;;12.67;76.87
76990;BME280;65924;47.250;11.332;2023-05-15T01:47:19;94314.58;;;12.67;76.18
76990;BME280;65924;47.250;11.332;2023-05-15T01:47:59;94313.69;;;12.65;76.33
76990;BME280;65924;47.250;11.332;2023-05-15T01:48:40;94316.48;;;12.64;76.64
76990;BME280;65924;47.250;11.332;2023-05-15T01:49:25;94318.33;;;12.62;76.88
76990;BME280;65924;47.250;11.332;2023-05-15T01:50:06;94325.50;;;12.62;77.20
76990;BME280;65924;47.250;11.332;2023-05-15T01:50:49;94319.91;;;12.62;76.93
76990;BME280;65924;47.250;11.332;2023-05-15T01:51:29;94325.47;;;12.60;76.64
76990;BME280;65924;47.250;11.332;2023-05-15T01:52:17;94323.42;;;12.60;76.74
76990;BME280;65924;47.250;11.332;2023-05-15T01:52:59;94324.14;;;12.59;76.62
76990;BME280;65924;47.250;11.332;2023-05-15T01:53:40;94320.96;;;12.58;76.63
76990;BME280;65924;47.250;11.332;2023-05-15T01:54:21;94318.25;;;12.58;76.81
76990;BME280;65924;47.250;11.332;2023-05-15T01:55:01;94320.00;;;12.58;76.16
76990;BME280;65924;47.250;11.332;2023-05-15T01:55:40;94318.20;;;12.57;76.66
76990;BME280;65924;47.250;11.332;2023-05-15T01:56:20;94319.39;;;12.57;76.96
76990;BME280;65924;47.250;11.332;2023-05-15T01:57:00;94317.88;;;12.57;76.73
76990;BME280;65924;47.250;11.332;2023-05-15T01:57:41;94316.59;;;12.56;76.75
76990;BME280;65924;47.250;11.332;2023-05-15T01:58:22;94315.03;;;12.56;77.14
76990;BME280;65924;47.250;11.332;2023-05-15T01:59:03;94317.75;;;12.56;77.07
76990;BME280;65924;47.250;11.332;2023-05-15T01:59:43;94318.23;;;12.56;76.60
76990;BME280;65924;47.250;11.332;2023-05-15T02:00:23;94312.40;;;12.57;76.90
76990;BME280;65924;47.250;11.332;2023-05-15T02:01:04;94315.33;;;12.56;76.13
76990;BME280;65924;47.250;11.332;2023-05-15T02:01:43;94313.88;;;12.56;76.96
76990;BME280;65924;47.250;11.332;2023-05-15T02:02:23;94313.52;;;12.56;77.80
76990;BME280;65924;47.250;11.332;2023-05-15T02:03:07;94314.85;;;12.56;77.68
76990;BME280;65924;47.250;11.332;2023-05-15T02:03:47;94313.31;;;12.56;77.40
76990;BME280;65924;47.250;11.332;2023-05-15T02:04:26;94311.73;;;12.57;77.53
76990;BME280;65924;47.250;11.332;2023-05-15T02:05:06;94308.81;;;12.57;76.83
76990;BME280;65924;47.250;11.332;2023-05-15T02:05:45;94310.89;;;12.57;77.19
76990;BME280;65924;47.250;11.332;2023-05-15T02:06:27;94309.86;;;12.57;76.96
76990;BME280;65924;47.250;11.332;2023-05-15T02:07:06;94312.55;;;12.57;76.90
76990;BME280;65924;47.250;11.332;2023-05-15T02:07:46;94315.02;;;12.58;76.99
76990;BME280;65924;47.250;11.332;2023-05-15T02:08:27;94318.03;;;12.59;76.63
76990;BME280;65924;47.250;11.332;2023-05-15T02:09:06;94314.45;;;12.57;76.85
76990;BME280;65924;47.250;11.332;2023-05-15T02:09:46;94314.98;;;12.59;77.08
76990;BME280;65924;47.250;11.332;2023-05-15T02:10:25;94312.59;;;12.59;77.07
76990;BME280;65924;47.250;11.332;2023-05-15T02:11:05;94316.39;;;12.58;76.71
76990;BME280;65924;47.250;11.332;2023-05-15T02:11:45;94316.81;;;12.57;76.81
76990;BME280;65924;47.250;11.332;2023-05-15T02:12:24;94314.55;;;12.56;76.08
76990;BME280;65924;47.250;11.332;2023-05-15T02:13:09;94317.11;;;12.54;76.87
76990;BME280;65924;47.250;11.332;2023-05-15T02:13:49;94316.58;;;12.54;77.05
76990;BME280;65924;47.250;11.332;2023-05-15T02:14:29;94311.75;;;12.52;76.92
76990;BME280;65924;47.250;11.332;2023-05-15T02:15:09;94315.22;;;12.54;77.11
76990;BME280;65924;47.250;11.332;2023-05-15T02:15:48;94319.48;;;12.54;77.29
76990;BME280;65924;47.250;11.332;2023-05-15T02:16:27;94317.52;;;12.55;77.86
76990;BME280;65924;47.250;11.332;2023-05-15T02:17:06;94316.82;;;12.55;77.62
76990;BME280;65924;47.250;11.332;2023-05-15T02:17:45;94315.09;;;12.55;77.38
76990;BME280;65924;47.250;11.332;2023-05-15T02:18:24;94310.58;;;12.54;77.15
76990;BME280;65924;47.250;11.332;2023-05-15T02:19:02;94313.38;;;12.55;77.45
76990;BME280;65924;47.250;11.332;2023-05-15T02:19:41;94310.45;;;12.56;77.22
76990;BME280;65924;47.250;11.332;2023-05-15T02:20:21;94309.52;;;12.57;77.03
76990;BME280;65924;47.250;11.332;2023-05-15T02:21:00;94314.10;;;12.57;77.24
76990;BME280;65924;47.250;11.332;2023-05-15T02:21:40;94309.63;;;12.57;77.24
76990;BME280;65924;47.250;11.332;2023-05-15T02:22:19;94308.29;;;12.57;76.67
76990;BME280;65924;47.250;11.332;2023-05-15T02:22:57;94308.54;;;12.56;76.77
76990;BME280;65924;47.250;11.332;2023-05-15T02:23:36;94306.52;;;12.56;77.03
76990;BME280;65924;47.250;11.332;2023-05-15T02:24:14;94309.92;;;12.56;77.08
76990;BME280;65924;47.250;11.332;2023-05-15T02:24:54;94308.59;;;12.56;77.17
76990;BME280;65924;47.250;11.332;2023-05-15T02:27:59;94305.77;;;12.57;77.35
76990;BME280;65924;47.250;11.332;2023-05-15T02:28:53;94307.27;;;12.55;77.09
76990;BME280;65924;47.250;11.332;2023-05-15T02:30:15;94305.42;;;12.57;77.08
76990;BME280;65924;47.250;11.332;2023-05-15T02:31:01;94311.75;;;12.54;77.31
76990;BME280;65924;47.250;11.332;2023-05-15T02:31:51;94311.83;;;12.53;77.25
76990;BME280;65924;47.250;11.332;2023-05-15T02:32:46;94309.09;;;12.54;77.22
76990;BME280;65924;47.250;11.332;2023-05-15T02:35:37;94303.06;;;12.52;76.20
76990;BME280;65924;47.250;11.332;2023-05-15T02:36:19;94304.48;;;12.49;76.61
76990;BME280;65924;47.250;11.332;2023-05-15T02:37:03;94304.59;;;12.48;76.87
76990;BME280;65924;47.250;11.332;2023-05-15T02:37:50;94307.13;;;12.48;77.26
76990;BME280;65924;47.250;11.332;2023-05-15T02:38:46;94306.47;;;12.48;77.02
76990;BME280;65924;47.250;11.332;2023-05-15T02:39:26;94308.01;;;12.46;76.19
76990;BME280;65924;47.250;11.332;2023-05-15T02:40:10;94301.83;;;12.45;76.37
76990;BME280;65924;47.250;11.332;2023-05-15T02:40:52;94303.45;;;12.43;76.89
76990;BME280;65924;47.250;11.332;2023-05-15T02:41:33;94304.14;;;12.43;77.28
76990;BME280;65924;47.250;11.332;2023-05-15T02:42:14;94302.58;;;12.44;77.32
76990;BME280;65924;47.250;11.332;2023-05-15T02:42:53;94303.66;;;12.45;77.26
76990;BME280;65924;47.250;11.332;2023-05-15T02:43:34;94302.47;;;12.45;76.96
76990;BME280;65924;47.250;11.332;2023-05-15T02:44:13;94301.15;;;12.44;76.55
76990;BME280;65924;47.250;11.332;2023-05-15T02:44:54;94303.87;;;12.44;76.67
76990;BME280;65924;47.250;11.332;2023-05-15T02:45:33;94300.77;;;12.45;76.51
76990;BME280;65924;47.250;11.332;2023-05-15T02:46:13;94294.36;;;12.44;76.62
76990;BME280;65924;47.250;11.332;2023-05-15T02:46:53;94296.41;;;12.44;77.09
76990;BME280;65924;47.250;11.332;2023-05-15T02:47:32;94297.42;;;12.44;77.27
76990;BME280;65924;47.250;11.332;2023-05-15T02:48:13;94299.86;;;12.46;77.27
76990;BME280;65924;47.250;11.332;2023-05-15T02:48:53;94304.06;;;12.46;77.43
76990;BME280;65924;47.250;11.332;2023-05-15T02:49:33;94303.00;;;12.47;77.13
76990;BME280;65924;47.250;11.332;2023-05-15T02:50:13;94304.05;;;12.46;77.26
76990;BME280;65924;47.250;11.332;2023-05-15T02:50:52;94300.30;;;12.46;77.37
76990;BME280;65924;47.250;11.332;2023-05-15T02:51:31;94301.02;;;12.48;77.21
76990;BME280;65924;47.250;11.332;2023-05-15T02:52:10;94304.42;;;12.48;77.24
76990;BME280;65924;47.250;11.332;2023-05-15T02:52:48;94305.06;;;12.49;77.42
76990;BME280;65924;47.250;11.332;2023-05-15T02:53:27;94307.88;;;12.50;77.33
76990;BME280;65924;47.250;11.332;2023-05-15T02:54:07;94309.73;;;12.50;77.41
76990;BME280;65924;47.250;11.332;2023-05-15T02:54:46;94309.33;;;12.51;77.35
76990;BME280;65924;47.250;11.332;2023-05-15T02:55:25;94309.48;;;12.51;77.59
76990;BME280;65924;47.250;11.332;2023-05-15T02:56:04;94312.83;;;12.52;77.46
76990;BME280;65924;47.250;11.332;2023-05-15T02:56:43;94311.98;;;12.52;77.69
76990;BME280;65924;47.250;11.332;2023-05-15T02:57:22;94309.46;;;12.51;76.93
76990;BME280;65924;47.250;11.332;2023-05-15T02:58:01;94310.07;;;12.52;77.58
76990;BME280;65924;47.250;11.332;2023-05-15T02:58:41;94307.19;;;12.52;77.39
76990;BME280;65924;47.250;11.332;2023-05-15T02:59:20;94304.25;;;12.52;78.02
76990;BME280;65924;47.250;11.332;2023-05-15T02:59:59;94304.77;;;12.52;77.58
76990;BME280;65924;47.250;11.332;2023-05-15T03:00:38;94301.09;;;12.51;77.39
76990;BME280;65924;47.250;11.332;2023-05-15T03:01:16;94305.10;;;12.52;77.48
76990;BME280;65924;47.250;11.332;2023-05-15T03:01:55;94306.84;;;12.52;76.80
76990;BME280;65924;47.250;11.332;2023-05-15T03:02:34;94306.72;;;12.51;76.86
76990;BME280;65924;47.250;11.332;2023-05-15T03:03:13;94307.73;;;12.51;76.81
76990;BME280;65924;47.250;11.332;2023-05-15T03:03:52;94310.67;;;12.51;76.38
76990;BME280;65924;47.250;11.332;2023-05-15T03:04:31;94306.75;;;12.49;75.95
76990;BME280;65924;47.250;11.332;2023-05-15T03:05:10;94306.06;;;12.47;76.22
76990;BME280;65924;47.250;11.332;2023-05-15T03:05:48;94304.69;;;12.47;75.88
76990;BME280;65924;47.250;11.332;2023-05-15T03:06:27;94301.80;;;12.45;76.30
76990;BME280;65924;47.250;11.332;2023-05-15T03:07:05;94303.76;;;12.44;76.85
76990;BME280;65924;47.250;11.332;2023-05-15T03:07:44;94304.27;;;12.44;76.63
76990;BME280;65924;47.250;11.332;2023-05-15T03:08:23;94303.89;;;12.44;76.92
76990;BME280;65924;47.250;11.332;2023-05-15T03:09:01;94304.86;;;12.45;77.20
76990;BME280;65924;47.250;11.332;2023-05-15T03:09:40;94304.17;;;12.45;76.82
76990;BME280;65924;47.250;11.332;2023-05-15T03:10:21;94298.39;;;12.45;76.68
76990;BME280;65924;47.250;11.332;2023-05-15T03:11:02;94298.21;;;12.45;76.41
76990;BME280;65924;47.250;11.332;2023-05-15T03:11:40;94301.98;;;12.44;76.41
76990;BME280;65924;47.250;11.332;2023-05-15T03:12:19;94301.15;;;12.44;76.32
76990;BME280;65924;47.250;11.332;2023-05-15T03:12:58;94304.59;;;12.44;76.95
76990;BME280;65924;47.250;11.332;2023-05-15T03:13:40;94303.21;;;12.44;76.90
76990;BME280;65924;47.250;11.332;2023-05-15T03:14:19;94302.15;;;12.45;77.09
76990;BME280;65924;47.250;11.332;2023-05-15T03:14:57;94304.39;;;12.44;76.99
76990;BME280;65924;47.250;11.332;2023-05-15T03:15:36;94302.98;;;12.45;76.97
76990;BME280;65924;47.250;11.332;2023-05-15T03:16:15;94302.94;;;12.45;77.12
76990;BME280;65924;47.250;11.332;2023-05-15T03:16:54;94304.98;;;12.45;76.82
76990;BME280;65924;47.250;11.332;2023-05-15T03:17:33;94304.91;;;12.46;76.79
76990;BME280;65924;47.250;11.332;2023-05-15T03:18:11;94303.26;;;12.46;77.03
76990;BME280;65924;47.250;11.332;2023-05-15T03:18:59;94302.55;;;12.46;76.67
76990;BME280;65924;47.250;11.332;2023-05-15T03:19:38;94299.33;;;12.46;76.63
76990;BME280;65924;47.250;11.332;2023-05-15T03:20:16;94299.54;;;12.45;76.77
76990;BME280;65924;47.250;11.332;2023-05-15T03:20:55;94297.98;;;12.46;76.88
76990;BME280;65924;47.250;11.332;2023-05-15T03:21:34;94299.46;;;12.46;76.65
76990;BME280;65924;47.250;11.332;2023-05-15T03:22:13;94301.30;;;12.47;77.29
76990;BME280;65924;47.250;11.332;2023-05-15T03:22:54;94304.38;;;12.47;77.22
76990;BME280;65924;47.250;11.332;2023-05-15T03:23:32;94307.88;;;12.47;76.73
76990;BME280;65924;47.250;11.332;2023-05-15T03:24:11;94306.84;;;12.46;76.17
76990;BME280;65924;47.250;11.332;2023-05-15T03:24:50;94313.27;;;12.46;76.65
76990;BME280;65924;47.250;11.332;2023-05-15T03:25:29;94314.83;;;12.46;76.86
76990;BME280;65924;47.250;11.332;2023-05-15T03:26:07;94315.81;;;12.46;77.09
76990;BME280;65924;47.250;11.332;2023-05-15T03:26:47;94320.44;;;12.46;77.08
76990;BME280;65924;47.250;11.332;2023-05-15T03:27:25;94320.44;;;12.46;76.31
76990;BME280;65924;47.250;11.332;2023-05-15T03:28:04;94319.34;;;12.45;76.80
76990;BME280;65924;47.250;11.332;2023-05-15T03:28:43;94318.92;;;12.46;77.24
76990;BME280;65924;47.250;11.332;2023-05-15T03:29:21;94316.09;;;12.47;77.23
76990;BME280;65924;47.250;11.332;2023-05-15T03:30:00;94319.27;;;12.48;77.22
76990;BME280;65924;47.250;11.332;2023-05-15T03:30:38;94318.13;;;12.47;77.10
76990;BME280;65924;47.250;11.332;2023-05-15T03:31:17;94316.20;;;12.48;77.18
76990;BME280;65924;47.250;11.332;2023-05-15T03:31:56;94319.38;;;12.49;77.50
76990;BME280;65924;47.250;11.332;2023-05-15T03:32:35;94320.50;;;12.49;77.20
76990;BME280;65924;47.250;11.332;2023-05-15T03:33:13;94320.84;;;12.49;76.74
76990;BME280;65924;47.250;11.332;2023-05-15T03:33:52;94321.34;;;12.50;76.39
76990;BME280;65924;47.250;11.332;2023-05-15T03:34:33;94325.80;;;12.49;76.27
76990;BME280;65924;47.250;11.332;2023-05-15T03:35:11;94325.14;;;12.49;76.68
76990;BME280;65924;47.250;11.332;2023-05-15T03:35:50;94323.30;;;12.49;76.66
76990;BME280;65924;47.250;11.332;2023-05-15T03:36:30;94324.98;;;12.49;75.84
76990;BME280;65924;47.250;11.332;2023-05-15T03:37:09;94320.45;;;12.48;76.08
76990;BME280;65924;47.250;11.332;2023-05-15T03:37:48;94324.18;;;12.48;76.01
76990;BME280;65924;47.250;11.332;2023-05-15T03:38:26;94321.33;;;12.48;75.87
76990;BME280;65924;47.250;11.332;2023-05-15T03:39:05;94322.19;;;12.48;75.62
76990;BME280;65924;47.250;11.332;2023-05-15T03:39:43;94320.59;;;12.46;75.91
76990;BME280;65924;47.250;11.332;2023-05-15T03:40:23;94322.77;;;12.45;75.63
76990;BME280;65924;47.250;11.332;2023-05-15T03:41:02;94322.42;;;12.42;75.90
76990;BME280;65924;47.250;11.332;2023-05-15T03:41:41;94319.96;;;12.41;75.88
76990;BME280;65924;47.250;11.332;2023-05-15T03:42:19;94324.48;;;12.40;76.36
76990;BME280;65924;47.250;11.332;2023-05-15T03:43:00;94323.94;;;12.40;77.11
76990;BME280;65924;47.250;11.332;2023-05-15T03:43:39;94322.08;;;12.40;77.08
76990;BME280;65924;47.250;11.332;2023-05-15T03:44:18;94321.80;;;12.40;76.82
76990;BME280;65924;47.250;11.332;2023-05-15T03:44:58;94321.85;;;12.41;77.13